sensor_id;sensor_type;location;lat;lon;timestamp;pressure;altitude;pressure_sealevel;temperature;humidity
3668;BME280;24099;47.102;15.440;2023-01-30T00:02:19;97575.91;;;-2.51;100.00
3668;BME280;24099;47.102;15.440;2023-01-30T00:04:47;97563.28;;;-2.70;100.00
3668;BME280;24099;47.102;15.440;2023-01-30T00:07:14;97568.22;;;-2.95;100.00
3668;BME280;24099;47.102;15.440;2023-01-30T00:09:42;97559.03;;;-2.85;100.00
3668;BME280;24099;47.102;15.440;2023-01-30T00:12:12;97560.56;;;-2.97;100.00
3668;BME280;24099;47.102;15.440;2023-01-30T00:14:51;97556.47;;;-2.85;100.00
3668;BME280;24099;47.102;15.440;2023-01-30T00:17:19;97548.19;;;-2.90;100.00
3668;BME280;24099;47.102;15.440;2023-01-30T00:19:48;97544.75;;;-3.05;100.00
3668;BME280;24099;47.102;15.440;2023-01-30T00:22:23;97548.59;;;-3.12;100.00
3668;BME280;24099;47.102;15.440;2023-01-30T00:24:54;97543.47;;;-2.98;100.00
3668;BME280;24099;47.102;15.440;2023-01-30T00:27:27;97535.91;;;-3.15;100.00
3668;BME280;24099;47.102;15.440;2023-01-30T00:30:00;97530.56;;;-3.12;100.00
3668;BME280;24099;47.102;15.440;2023-01-30T00:32:32;97531.72;;;-2.88;100.00
3668;BME280;24099;47.102;15.440;2023-01-30T00:35:00;97534.13;;;-2.85;100.00
3668;BME280;24099;47.102;15.440;2023-01-30T00:37:30;97536.22;;;-2.91;100.00
3668;BME280;24099;47.102;15.440;2023-01-30T00:40:05;97531.06;;;-3.05;100.00
3668;BME280;24099;47.102;15.440;2023-01-30T00:42:33;97523.91;;;-3.00;100.00
3668;BME280;24099;47.102;15.440;2023-01-30T00:45:31;97520.59;;;-3.02;100.00
3668;BME280;24099;47.102;15.440;2023-01-30T00:48:18;97513.66;;;-3.16;100.00
3668;BME280;24099;47.102;15.440;2023-01-30T00:50:49;97518.72;;;-3.15;100.00
3668;BME280;24099;47.102;15.440;2023-01-30T00:53:17;97520.25;;;-3.26;100.00
3668;BME280;24099;47.102;15.440;2023-01-30T00:55:51;97521.78;;;-3.38;100.00
3668;BME280;24099;47.102;15.440;2023-01-30T00:58:20;97524.53;;;-3.41;100.00
3668;BME280;24099;47.102;15.440;2023-01-30T01:00:52;97523.34;;;-3.35;100.00
3668;BME280;24099;47.102;15.440;2023-01-30T01:03:29;97522.88;;;-3.42;100.00
3668;BME280;24099;47.102;15.440;2023-01-30T01:05:57;97514.34;;;-3.42;100.00
3668;BME280;24099;47.102;15.440;2023-01-30T01:08:26;97506.06;;;-3.33;100.00
3668;BME280;24099;47.102;15.440;2023-01-30T01:10:55;97505.03;;;-3.45;100.00
3668;BME280;24099;47.102;15.440;2023-01-30T01:13:26;97510.03;;;-3.58;100.00
3668;BME280;24099;47.102;15.440;2023-01-30T01:15:55;97505.47;;;-3.53;100.00
3668;BME280;24099;47.102;15.440;2023-01-30T01:18:27;97500.56;;;-3.41;100.00
3668;BME280;24099;47.102;15.440;2023-01-30T01:20:59;97506.72;;;-3.44;100.00
3668;BME280;24099;47.102;15.440;2023-01-30T01:23:27;97497.69;;;-3.37;100.00
3668;BME280;24099;47.102;15.440;2023-01-30T01:26:07;97496.41;;;-3.44;100.00
3668;BME280;24099;47.102;15.440;2023-01-30T01:28:47;97500.91;;;-3.48;100.00
3668;BME280;24099;47.102;15.440;2023-01-30T01:31:24;97493.69;;;-3.57;100.00
3668;BME280;24099;47.102;15.440;2023-01-30T01:33:55;97494.94;;;-3.48;100.00
3668;BME280;24099;47.102;15.440;2023-01-30T01:36:28;97496.75;;;-3.50;100.00
3668;BME280;24099;47.102;15.440;2023-01-30T01:39:02;97490.66;;;-3.79;100.00
3668;BME280;24099;47.102;15.440;2023-01-30T01:42:00;97487.53;;;-3.84;100.00
3668;BME280;24099;47.102;15.440;2023-01-30T01:44:29;97495.97;;;-3.66;100.00
3668;BME280;24099;47.102;15.440;2023-01-30T01:47:18;97489.28;;;-3.55;100.00
3668;BME280;24099;47.102;15.440;2023-01-30T01:49:53;97483.41;;;-3.87;100.00
3668;BME280;24099;47.102;15.440;2023-01-30T01:52:22;97472.78;;;-3.96;100.00
3668;BME280;24099;47.102;15.440;2023-01-30T01:54:53;97470.75;;;-3.75;100.00
3668;BME280;24099;47.102;15.440;2023-01-30T01:57:44;97476.34;;;-3.83;100.00
3668;BME280;24099;47.102;15.440;2023-01-30T02:00:18;97480.09;;;-3.89;100.00
3668;BME280;24099;47.102;15.440;2023-01-30T02:02:57;97477.38;;;-3.71;100.00
3668;BME280;24099;47.102;15.440;2023-01-30T02:05:43;97459.34;;;-3.86;100.00
3668;BME280;24099;47.102;15.440;2023-01-30T02:08:26;97462.59;;;-3.82;100.00
3668;BME280;24099;47.102;15.440;2023-01-30T02:11:09;97466.41;;;-3.89;100.00
3668;BME280;24099;47.102;15.440;2023-01-30T02:13:40;97469.50;;;-4.14;100.00
3668;BME280;24099;47.102;15.440;2023-01-30T02:16:08;97458.56;;;-4.18;100.00
3668;BME280;24099;47.102;15.440;2023-01-30T02:18:43;97457.47;;;-4.13;100.00
3668;BME280;24099;47.102;15.440;2023-01-30T02:21:49;97454.59;;;-4.23;100.00
3668;BME280;24099;47.102;15.440;2023-01-30T02:24:56;97453.78;;;-4.24;100.00
3668;BME280;24099;47.102;15.440;2023-01-30T02:28:01;97455.22;;;-4.20;100.00
3668;BME280;24099;47.102;15.440;2023-01-30T02:31:05;97438.06;;;-4.03;100.00
3668;BME280;24099;47.102;15.440;2023-01-30T02:34:00;97435.50;;;-4.03;100.00
3668;BME280;24099;47.102;15.440;2023-01-30T02:36:47;97445.03;;;-4.05;100.00
3668;BME280;24099;47.102;15.440;2023-01-30T02:39:31;97438.75;;;-4.00;100.00
3668;BME280;24099;47.102;15.440;2023-01-30T02:42:15;97429.78;;;-4.08;100.00
3668;BME280;24099;47.102;15.440;2023-01-30T02:45:17;97423.50;;;-4.34;100.00
3668;BME280;24099;47.102;15.440;2023-01-30T02:47:55;97424.50;;;-4.21;100.00
3668;BME280;24099;47.102;15.440;2023-01-30T02:50:28;97422.69;;;-4.35;100.00
3668;BME280;24099;47.102;15.440;2023-01-30T02:56:02;97427.66;;;-4.32;100.00
3668;BME280;24099;47.102;15.440;2023-01-30T02:58:41;97439.00;;;-4.36;100.00
3668;BME280;24099;47.102;15.440;2023-01-30T03:01:50;97433.19;;;-4.39;100.00
3668;BME280;24099;47.102;15.440;2023-01-30T03:04:42;97427.97;;;-4.38;100.00
3668;BME280;24099;47.102;15.440;2023-01-30T03:07:26;97427.06;;;-4.37;100.00
3668;BME280;24099;47.102;15.440;2023-01-30T03:10:40;97427.50;;;-4.44;100.00
3668;BME280;24099;47.102;15.440;2023-01-30T03:13:43;97427.78;;;-4.19;100.00
3668;BME280;24099;47.102;15.440;2023-01-30T03:16:23;97424.97;;;-4.14;100.00
3668;BME280;24099;47.102;15.440;2023-01-30T03:18:55;97431.31;;;-4.20;100.00
3668;BME280;24099;47.102;15.440;2023-01-30T03:21:25;97426.59;;;-4.28;100.00
3668;BME280;24099;47.102;15.440;2023-01-30T03:24:09;97414.47;;;-4.26;100.00
3668;BME280;24099;47.102;15.440;2023-01-30T03:26:43;97405.63;;;-4.36;100.00
3668;BME280;24099;47.102;15.440;2023-01-30T03:29:14;97402.06;;;-4.49;100.00
3668;BME280;24099;47.102;15.440;2023-01-30T03:31:43;97411.28;;;-4.45;100.00
3668;BME280;24099;47.102;15.440;2023-01-30T03:34:12;97408.69;;;-4.29;100.00
3668;BME280;24099;47.102;15.440;2023-01-30T03:36:46;97407.19;;;-4.33;100.00
3668;BME280;24099;47.102;15.440;2023-01-30T03:39:37;97409.16;;;-4.38;100.00
3668;BME280;24099;47.102;15.440;2023-01-30T03:42:11;97410.84;;;-4.37;100.00
3668;BME280;24099;47.102;15.440;2023-01-30T03:44:52;97401.09;;;-4.62;100.00
3668;BME280;24099;47.102;15.440;2023-01-30T03:47:43;97406.53;;;-4.53;100.00
3668;BME280;24099;47.102;15.440;2023-01-30T03:50:23;97401.91;;;-4.46;100.00
3668;BME280;24099;47.102;15.440;2023-01-30T03:52:53;97400.91;;;-4.43;100.00
3668;BME280;24099;47.102;15.440;2023-01-30T03:55:22;97391.53;;;-4.76;100.00
3668;BME280;24099;47.102;15.440;2023-01-30T03:57:54;97387.44;;;-4.63;100.00
3668;BME280;24099;47.102;15.440;2023-01-30T04:00:25;97385.31;;;-4.56;100.00
3668;BME280;24099;47.102;15.440;2023-01-30T04:02:54;97381.19;;;-4.59;100.00
3668;BME280;24099;47.102;15.440;2023-01-30T04:05:25;97379.38;;;-4.57;100.00
3668;BME280;24099;47.102;15.440;2023-01-30T04:08:04;97362.97;;;-4.70;100.00
3668;BME280;24099;47.102;15.440;2023-01-30T04:10:32;97365.31;;;-4.81;100.00
3668;BME280;24099;47.102;15.440;2023-01-30T04:13:00;97360.84;;;-4.62;100.00
3668;BME280;24099;47.102;15.440;2023-01-30T04:15:36;97364.47;;;-4.50;100.00
3668;BME280;24099;47.102;15.440;2023-01-30T04:18:30;97365.88;;;-4.60;100.00
3668;BME280;24099;47.102;15.440;2023-01-30T04:21:14;97367.44;;;-4.58;100.00
3668;BME280;24099;47.102;15.440;2023-01-30T04:23:43;97359.19;;;-4.63;100.00
3668;BME280;24099;47.102;15.440;2023-01-30T04:26:12;97341.97;;;-4.61;100.00
3668;BME280;24099;47.102;15.440;2023-01-30T04:28:41;97342.94;;;-4.95;100.00
3668;BME280;24099;47.102;15.440;2023-01-30T04:31:10;97345.78;;;-4.83;100.00
3668;BME280;24099;47.102;15.440;2023-01-30T04:33:57;97337.63;;;-4.76;100.00
3668;BME280;24099;47.102;15.440;2023-01-30T04:36:25;97337.81;;;-4.63;100.00
3668;BME280;24099;47.102;15.440;2023-01-30T04:38:57;97330.84;;;-4.61;100.00
3668;BME280;24099;47.102;15.440;2023-01-30T04:41:32;97322.56;;;-4.66;100.00
3668;BME280;24099;47.102;15.440;2023-01-30T04:44:02;97330.53;;;-4.87;100.00
3668;BME280;24099;47.102;15.440;2023-01-30T04:46:43;97323.16;;;-4.93;100.00
3668;BME280;24099;47.102;15.440;2023-01-30T04:49:13;97320.66;;;-4.78;100.00
3668;BME280;24099;47.102;15.440;2023-01-30T04:51:43;97323.31;;;-4.64;100.00
3668;BME280;24099;47.102;15.440;2023-01-30T04:54:13;97315.13;;;-4.87;100.00
3668;BME280;24099;47.102;15.440;2023-01-30T04:56:41;97315.53;;;-4.94;100.00
3668;BME280;24099;47.102;15.440;2023-01-30T04:59:09;97319.34;;;-5.17;100.00
3668;BME280;24099;47.102;15.440;2023-01-30T05:01:42;97319.44;;;-5.03;100.00
3668;BME280;24099;47.102;15.440;2023-01-30T05:04:11;97313.81;;;-5.09;100.00
3668;BME280;24099;47.102;15.440;2023-01-30T05:06:40;97312.81;;;-4.91;100.00
3668;BME280;24099;47.102;15.440;2023-01-30T05:09:08;97307.34;;;-4.85;100.00
3668;BME280;24099;47.102;15.440;2023-01-30T05:11:38;97306.38;;;-4.82;100.00
3668;BME280;24099;47.102;15.440;2023-01-30T05:14:06;97293.53;;;-4.82;100.00
3668;BME280;24099;47.102;15.440;2023-01-30T05:16:34;97301.41;;;-5.01;100.00
3668;BME280;24099;47.102;15.440;2023-01-30T05:19:02;97302.31;;;-5.02;100.00
3668;BME280;24099;47.102;15.440;2023-01-30T05:21:30;97301.56;;;-4.89;100.00
3668;BME280;24099;47.102;15.440;2023-01-30T05:23:58;97301.63;;;-4.90;100.00
3668;BME280;24099;47.102;15.440;2023-01-30T05:26:27;97289.06;;;-4.95;100.00
3668;BME280;24099;47.102;15.440;2023-01-30T05:28:57;97281.34;;;-4.95;100.00
3668;BME280;24099;47.102;15.440;2023-01-30T05:31:27;97281.34;;;-4.95;100.00
3668;BME280;24099;47.102;15.440;2023-01-30T05:33:56;97281.00;;;-4.73;100.00
3668;BME280;24099;47.102;15.440;2023-01-30T05:36:23;97286.00;;;-4.86;100.00
3668;BME280;24099;47.102;15.440;2023-01-30T05:38:51;97282.63;;;-5.02;100.00
3668;BME280;24099;47.102;15.440;2023-01-30T05:41:20;97279.72;;;-5.11;100.00
3668;BME280;24099;47.102;15.440;2023-01-30T05:43:52;97291.47;;;-4.92;100.00
3668;BME280;24099;47.102;15.440;2023-01-30T05:46:22;97289.63;;;-4.90;100.00
3668;BME280;24099;47.102;15.440;2023-01-30T05:48:50;97273.53;;;-4.77;100.00
3668;BME280;24099;47.102;15.440;2023-01-30T05:51:19;97268.13;;;-4.87;100.00
3668;BME280;24099;47.102;15.440;2023-01-30T05:53:47;97278.41;;;-5.03;100.00
3668;BME280;24099;47.102;15.440;2023-01-30T05:56:16;97273.50;;;-4.92;100.00
3668;BME280;24099;47.102;15.440;2023-01-30T05:58:50;97267.66;;;-4.79;100.00
3668;BME280;24099;47.102;15.440;2023-01-30T06:01:22;97271.19;;;-4.80;100.00
3668;BME280;24099;47.102;15.440;2023-01-30T06:03:54;97266.94;;;-4.97;100.00
3668;BME280;24099;47.102;15.440;2023-01-30T06:06:24;97265.88;;;-4.93;100.00
3668;BME280;24099;47.102;15.440;2023-01-30T06:08:53;97265.47;;;-4.86;100.00
3668;BME280;24099;47.102;15.440;2023-01-30T06:11:22;97272.81;;;-4.79;100.00
3668;BME280;24099;47.102;15.440;2023-01-30T06:13:50;97281.84;;;-4.88;100.00
3668;BME280;24099;47.102;15.440;2023-01-30T06:16:20;97272.72;;;-4.78;100.00
3668;BME280;24099;47.102;15.440;2023-01-30T06:18:48;97271.88;;;-4.78;100.00
3668;BME280;24099;47.102;15.440;2023-01-30T06:21:19;97257.81;;;-4.71;100.00
3668;BME280;24099;47.102;15.440;2023-01-30T06:23:50;97255.03;;;-4.82;100.00
3668;BME280;24099;47.102;15.440;2023-01-30T06:26:18;97256.41;;;-4.77;100.00
3668;BME280;24099;47.102;15.440;2023-01-30T06:28:46;97257.47;;;-4.65;100.00
3668;BME280;24099;47.102;15.440;2023-01-30T06:31:16;97268.66;;;-4.66;100.00
3668;BME280;24099;47.102;15.440;2023-01-30T06:33:46;97278.81;;;-4.49;100.00
3668;BME280;24099;47.102;15.440;2023-01-30T06:36:15;97270.84;;;-4.44;100.00
3668;BME280;24099;47.102;15.440;2023-01-30T06:38:43;97270.19;;;-4.48;100.00
3668;BME280;24099;47.102;15.440;2023-01-30T06:41:12;97283.06;;;-4.64;100.00
3668;BME280;24099;47.102;15.440;2023-01-30T06:43:41;97272.66;;;-4.46;100.00
3668;BME280;24099;47.102;15.440;2023-01-30T06:46:09;97282.53;;;-4.55;100.00
3668;BME280;24099;47.102;15.440;2023-01-30T06:48:38;97280.63;;;-4.51;100.00
3668;BME280;24099;47.102;15.440;2023-01-30T06:51:07;97277.09;;;-4.34;100.00
3668;BME280;24099;47.102;15.440;2023-01-30T06:53:35;97270.75;;;-4.43;100.00
3668;BME280;24099;47.102;15.440;2023-01-30T06:56:05;97271.00;;;-4.47;100.00
3668;BME280;24099;47.102;15.440;2023-01-30T06:58:34;97279.66;;;-4.34;100.00
3668;BME280;24099;47.102;15.440;2023-01-30T07:01:04;97254.63;;;-4.31;100.00
3668;BME280;24099;47.102;15.440;2023-01-30T07:03:33;97256.47;;;-4.33;100.00
3668;BME280;24099;47.102;15.440;2023-01-30T07:06:01;97276.66;;;-4.27;100.00
3668;BME280;24099;47.102;15.440;2023-01-30T07:08:31;97272.47;;;-4.13;100.00
3668;BME280;24099;47.102;15.440;2023-01-30T07:11:04;97286.31;;;-4.16;100.00
3668;BME280;24099;47.102;15.440;2023-01-30T07:13:32;97265.72;;;-4.00;100.00
3668;BME280;24099;47.102;15.440;2023-01-30T07:16:00;97272.03;;;-4.06;100.00
3668;BME280;24099;47.102;15.440;2023-01-30T07:18:31;97271.84;;;-4.03;100.00
3668;BME280;24099;47.102;15.440;2023-01-30T07:21:00;97255.03;;;-3.94;100.00
3668;BME280;24099;47.102;15.440;2023-01-30T07:23:30;97250.56;;;-3.91;100.00
3668;BME280;24099;47.102;15.440;2023-01-30T07:25:58;97268.63;;;-3.92;100.00
3668;BME280;24099;47.102;15.440;2023-01-30T07:28:26;97251.28;;;-3.89;100.00
3668;BME280;24099;47.102;15.440;2023-01-30T07:30:54;97248.28;;;-3.81;100.00
3668;BME280;24099;47.102;15.440;2023-01-30T07:33:22;97246.63;;;-3.82;100.00
3668;BME280;24099;47.102;15.440;2023-01-30T07:35:50;97238.72;;;-3.65;100.00
3668;BME280;24099;47.102;15.440;2023-01-30T07:38:19;97242.94;;;-3.64;100.00
3668;BME280;24099;47.102;15.440;2023-01-30T07:40:48;97246.34;;;-3.63;100.00
3668;BME280;24099;47.102;15.440;2023-01-30T07:43:16;97223.63;;;-3.57;100.00
3668;BME280;24099;47.102;15.440;2023-01-30T07:45:47;97223.44;;;-3.54;100.00
3668;BME280;24099;47.102;15.440;2023-01-30T07:48:18;97227.22;;;-3.45;100.00
3668;BME280;24099;47.102;15.440;2023-01-30T07:50:53;97235.47;;;-3.40;100.00
3668;BME280;24099;47.102;15.440;2023-01-30T07:53:25;97228.28;;;-3.35;100.00
3668;BME280;24099;47.102;15.440;2023-01-30T07:55:55;97221.13;;;-3.30;100.00
3668;BME280;24099;47.102;15.440;2023-01-30T07:58:23;97206.31;;;-3.26;100.00
3668;BME280;24099;47.102;15.440;2023-01-30T08:00:54;97209.63;;;-3.24;100.00
3668;BME280;24099;47.102;15.440;2023-01-30T08:03:24;97211.50;;;-3.14;100.00
3668;BME280;24099;47.102;15.440;2023-01-30T08:05:58;97219.03;;;-3.10;100.00
3668;BME280;24099;47.102;15.440;2023-01-30T08:08:26;97211.94;;;-3.07;100.00
3668;BME280;24099;47.102;15.440;2023-01-30T08:10:55;97216.91;;;-3.04;100.00
3668;BME280;24099;47.102;15.440;2023-01-30T08:13:23;97217.41;;;-2.99;100.00
3668;BME280;24099;47.102;15.440;2023-01-30T08:15:51;97209.31;;;-2.93;100.00
3668;BME280;24099;47.102;15.440;2023-01-30T08:18:23;97194.22;;;-2.85;100.00
3668;BME280;24099;47.102;15.440;2023-01-30T08:20:56;97191.44;;;-2.82;100.00
3668;BME280;24099;47.102;15.440;2023-01-30T08:23:27;97183.22;;;-2.74;100.00
3668;BME280;24099;47.102;15.440;2023-01-30T08:25:58;97192.28;;;-2.68;100.00
3668;BME280;24099;47.102;15.440;2023-01-30T08:28:26;97174.47;;;-2.71;100.00
3668;BME280;24099;47.102;15.440;2023-01-30T08:30:55;97181.78;;;-2.65;100.00
3668;BME280;24099;47.102;15.440;2023-01-30T08:33:23;97177.69;;;-2.55;100.00
3668;BME280;24099;47.102;15.440;2023-01-30T08:35:55;97182.75;;;-2.41;100.00
3668;BME280;24099;47.102;15.440;2023-01-30T08:38:23;97181.13;;;-2.42;100.00
3668;BME280;24099;47.102;15.440;2023-01-30T08:40:51;97181.59;;;-2.37;100.00
3668;BME280;24099;47.102;15.440;2023-01-30T08:43:20;97179.56;;;-2.32;100.00
3668;BME280;24099;47.102;15.440;2023-01-30T08:45:52;97173.06;;;-2.25;100.00
3668;BME280;24099;47.102;15.440;2023-01-30T08:48:29;97165.75;;;-2.05;100.00
3668;BME280;24099;47.102;15.440;2023-01-30T08:50:58;97167.38;;;-1.92;100.00
3668;BME280;24099;47.102;15.440;2023-01-30T08:53:26;97157.03;;;-1.79;100.00
3668;BME280;24099;47.102;15.440;2023-01-30T08:55:54;97148.59;;;-1.45;100.00
3668;BME280;24099;47.102;15.440;2023-01-30T08:58:23;97145.63;;;-1.51;100.00
3668;BME280;24099;47.102;15.440;2023-01-30T09:00:51;97134.09;;;-1.34;100.00
3668;BME280;24099;47.102;15.440;2023-01-30T09:03:19;97122.59;;;-1.42;100.00
3668;BME280;24099;47.102;15.440;2023-01-30T09:05:52;97111.53;;;-1.44;100.00
3668;BME280;24099;47.102;15.440;2023-01-30T09:08:22;97092.09;;;-1.36;100.00
3668;BME280;24099;47.102;15.440;2023-01-30T09:10:57;97082.31;;;-1.20;100.00
3668;BME280;24099;47.102;15.440;2023-01-30T09:13:31;97071.91;;;-1.08;100.00
3668;BME280;24099;47.102;15.440;2023-01-30T09:15:59;97067.38;;;-0.93;100.00
3668;BME280;24099;47.102;15.440;2023-01-30T09:18:27;97051.47;;;-0.64;100.00
3668;BME280;24099;47.102;15.440;2023-01-30T09:21:02;97048.06;;;-0.65;100.00
3668;BME280;24099;47.102;15.440;2023-01-30T09:23:31;97048.75;;;-0.52;100.00
3668;BME280;24099;47.102;15.440;2023-01-30T09:26:02;97043.59;;;-0.52;100.00
3668;BME280;24099;47.102;15.440;2023-01-30T09:28:31;97039.13;;;-0.05;100.00
3668;BME280;24099;47.102;15.440;2023-01-30T09:31:00;97027.94;;;-0.17;100.00
3668;BME280;24099;47.102;15.440;2023-01-30T09:33:37;97011.75;;;-0.30;100.00
3668;BME280;24099;47.102;15.440;2023-01-30T09:36:17;97021.63;;;-0.24;100.00
3668;BME280;24099;47.102;15.440;2023-01-30T09:38:45;97016.34;;;-0.22;100.00
3668;BME280;24099;47.102;15.440;2023-01-30T09:41:38;97014.31;;;-0.08;100.00
3668;BME280;24099;47.102;15.440;2023-01-30T09:44:38;97023.50;;;-0.04;100.00
3668;BME280;24099;47.102;15.440;2023-01-30T09:47:28;96994.53;;;0.03;100.00
3668;BME280;24099;47.102;15.440;2023-01-30T09:50:12;96986.16;;;0.10;100.00
3668;BME280;24099;47.102;15.440;2023-01-30T09:52:54;96994.13;;;0.29;100.00
3668;BME280;24099;47.102;15.440;2023-01-30T09:55:25;96986.81;;;0.34;100.00
3668;BME280;24099;47.102;15.440;2023-01-30T09:57:56;96981.97;;;0.62;100.00
3668;BME280;24099;47.102;15.440;2023-01-30T10:00:31;96976.25;;;0.79;100.00
3668;BME280;24099;47.102;15.440;2023-01-30T10:03:05;96964.50;;;0.75;100.00
3668;BME280;24099;47.102;15.440;2023-01-30T10:05:41;96973.50;;;0.81;100.00
3668;BME280;24099;47.102;15.440;2023-01-30T10:08:23;96966.19;;;0.86;100.00
3668;BME280;24099;47.102;15.440;2023-01-30T10:11:00;96966.06;;;0.87;100.00
3668;BME280;24099;47.102;15.440;2023-01-30T10:13:42;96967.00;;;0.86;100.00
3668;BME280;24099;47.102;15.440;2023-01-30T10:16:19;96956.06;;;0.83;100.00
3668;BME280;24099;47.102;15.440;2023-01-30T10:18:55;96945.09;;;0.90;100.00
3668;BME280;24099;47.102;15.440;2023-01-30T10:21:36;96936.94;;;1.25;100.00
3668;BME280;24099;47.102;15.440;2023-01-30T10:24:31;96932.03;;;1.62;100.00
3668;BME280;24099;47.102;15.440;2023-01-30T10:27:06;96927.97;;;1.29;100.00
3668;BME280;24099;47.102;15.440;2023-01-30T10:29:38;96931.81;;;1.35;100.00
3668;BME280;24099;47.102;15.440;2023-01-30T10:32:13;96931.50;;;1.28;100.00
3668;BME280;24099;47.102;15.440;2023-01-30T10:34:46;96919.94;;;1.32;100.00
3668;BME280;24099;47.102;15.440;2023-01-30T10:37:20;96914.69;;;1.63;100.00
3668;BME280;24099;47.102;15.440;2023-01-30T10:39:55;96912.91;;;1.54;100.00
3668;BME280;24099;47.102;15.440;2023-01-30T10:42:28;96918.47;;;1.40;100.00
3668;BME280;24099;47.102;15.440;2023-01-30T10:45:08;96913.09;;;1.31;100.00
3668;BME280;24099;47.102;15.440;2023-01-30T10:47:51;96925.16;;;1.12;100.00
3668;BME280;24099;47.102;15.440;2023-01-30T10:50:29;96917.00;;;1.16;100.00
3668;BME280;24099;47.102;15.440;2023-01-30T10:53:05;96901.72;;;1.13;100.00
3668;BME280;24099;47.102;15.440;2023-01-30T10:55:39;96896.91;;;1.49;100.00
3668;BME280;24099;47.102;15.440;2023-01-30T10:58:16;96889.56;;;1.54;100.00
3668;BME280;24099;47.102;15.440;2023-01-30T11:00:53;96890.84;;;1.79;100.00
3668;BME280;24099;47.102;15.440;2023-01-30T11:03:34;96890.69;;;1.80;100.00
3668;BME280;24099;47.102;15.440;2023-01-30T11:06:06;96877.63;;;2.11;100.00
3668;BME280;24099;47.102;15.440;2023-01-30T11:08:38;96869.03;;;2.20;100.00
3668;BME280;24099;47.102;15.440;2023-01-30T11:11:30;96860.09;;;2.51;100.00
3668;BME280;24099;47.102;15.440;2023-01-30T11:14:04;96849.16;;;2.48;100.00
3668;BME280;24099;47.102;15.440;2023-01-30T11:16:39;96841.72;;;2.72;100.00
3668;BME280;24099;47.102;15.440;2023-01-30T11:19:10;96827.28;;;2.60;100.00
3668;BME280;24099;47.102;15.440;2023-01-30T11:21:39;96835.44;;;2.74;100.00
3668;BME280;24099;47.102;15.440;2023-01-30T11:24:14;96816.53;;;3.09;100.00
3668;BME280;24099;47.102;15.440;2023-01-30T11:26:43;96810.03;;;3.23;100.00
3668;BME280;24099;47.102;15.440;2023-01-30T11:29:22;96817.41;;;3.28;100.00
3668;BME280;24099;47.102;15.440;2023-01-30T11:31:51;96803.72;;;3.26;100.00
3668;BME280;24099;47.102;15.440;2023-01-30T11:34:23;96794.34;;;2.88;100.00
3668;BME280;24099;47.102;15.440;2023-01-30T11:37:12;96787.47;;;3.41;100.00
3668;BME280;24099;47.102;15.440;2023-01-30T11:39:49;96787.94;;;3.55;100.00
3668;BME280;24099;47.102;15.440;2023-01-30T11:42:19;96789.94;;;3.61;100.00
3668;BME280;24099;47.102;15.440;2023-01-30T11:44:56;96784.97;;;3.50;100.00
3668;BME280;24099;47.102;15.440;2023-01-30T11:47:26;96788.53;;;3.49;100.00
3668;BME280;24099;47.102;15.440;2023-01-30T11:49:58;96790.78;;;3.16;100.00
3668;BME280;24099;47.102;15.440;2023-01-30T11:52:29;96762.50;;;3.49;100.00
3668;BME280;24099;47.102;15.440;2023-01-30T11:54:59;96771.44;;;3.64;100.00
3668;BME280;24099;47.102;15.440;2023-01-30T11:57:39;96769.75;;;3.55;100.00
3668;BME280;24099;47.102;15.440;2023-01-30T12:00:19;96762.91;;;3.54;100.00
3668;BME280;24099;47.102;15.440;2023-01-30T12:02:50;96764.28;;;3.66;100.00
3668;BME280;24099;47.102;15.440;2023-01-30T12:05:25;96754.56;;;3.68;100.00
3668;BME280;24099;47.102;15.440;2023-01-30T12:08:12;96756.94;;;3.61;100.00
3668;BME280;24099;47.102;15.440;2023-01-30T12:10:51;96758.03;;;3.41;100.00
3668;BME280;24099;47.102;15.440;2023-01-30T12:13:25;96747.66;;;3.59;100.00
3668;BME280;24099;47.102;15.440;2023-01-30T12:16:09;96745.63;;;3.70;100.00
3668;BME280;24099;47.102;15.440;2023-01-30T12:18:42;96740.13;;;3.73;100.00
3668;BME280;24099;47.102;15.440;2023-01-30T12:21:25;96733.97;;;3.74;100.00
3668;BME280;24099;47.102;15.440;2023-01-30T12:24:02;96733.69;;;3.77;100.00
3668;BME280;24099;47.102;15.440;2023-01-30T12:26:36;96725.50;;;3.72;100.00
3668;BME280;24099;47.102;15.440;2023-01-30T12:29:20;96726.28;;;3.91;100.00
3668;BME280;24099;47.102;15.440;2023-01-30T12:32:01;96725.31;;;3.92;100.00
3668;BME280;24099;47.102;15.440;2023-01-30T12:34:31;96725.53;;;3.98;100.00
3668;BME280;24099;47.102;15.440;2023-01-30T12:37:09;96713.34;;;3.99;100.00
3668;BME280;24099;47.102;15.440;2023-01-30T12:39:49;96718.25;;;3.84;100.00
3668;BME280;24099;47.102;15.440;2023-01-30T12:42:38;96712.34;;;4.00;100.00
3668;BME280;24099;47.102;15.440;2023-01-30T12:45:20;96714.38;;;3.88;100.00
3668;BME280;24099;47.102;15.440;2023-01-30T12:48:04;96705.78;;;4.13;100.00
3668;BME280;24099;47.102;15.440;2023-01-30T12:50:46;96701.78;;;4.61;100.00
3668;BME280;24099;47.102;15.440;2023-01-30T12:53:33;96684.34;;;4.20;100.00
3668;BME280;24099;47.102;15.440;2023-01-30T12:56:27;96685.03;;;4.30;100.00
3668;BME280;24099;47.102;15.440;2023-01-30T12:59:02;96691.13;;;4.46;100.00
3668;BME280;24099;47.102;15.440;2023-01-30T13:01:42;96685.84;;;4.64;100.00
3668;BME280;24099;47.102;15.440;2023-01-30T13:04:16;96670.28;;;4.46;100.00
3668;BME280;24099;47.102;15.440;2023-01-30T13:07:00;96672.81;;;4.64;100.00
3668;BME280;24099;47.102;15.440;2023-01-30T13:09:57;96677.16;;;5.06;100.00
3668;BME280;24099;47.102;15.440;2023-01-30T13:12:34;96668.38;;;5.07;100.00
3668;BME280;24099;47.102;15.440;2023-01-30T13:15:13;96662.16;;;4.92;100.00
3668;BME280;24099;47.102;15.440;2023-01-30T13:17:55;96670.44;;;4.87;100.00
3668;BME280;24099;47.102;15.440;2023-01-30T13:20:55;96650.81;;;5.41;100.00
3668;BME280;24099;47.102;15.440;2023-01-30T13:23:38;96651.94;;;5.31;100.00
3668;BME280;24099;47.102;15.440;2023-01-30T13:26:15;96649.50;;;5.45;100.00
3668;BME280;24099;47.102;15.440;2023-01-30T13:28:47;96655.50;;;5.22;100.00
3668;BME280;24099;47.102;15.440;2023-01-30T13:31:18;96637.13;;;5.39;100.00
3668;BME280;24099;47.102;15.440;2023-01-30T13:33:51;96636.78;;;5.50;100.00
3668;BME280;24099;47.102;15.440;2023-01-30T13:36:28;96633.69;;;5.55;100.00